Latest Weather Observations for Blackall

IDQ60801

Issued at 1:32 pm EST Thursday 1 September 2016 (issued every 30 minutes, with the page automatically refreshed every 10 minutes)

About weather observations | Map of weather stations | Latest weather observations for QLD | Other Formats
Station Details ID: 036034 Name: BLACKALL AIRPORT Lat: -24.43 Lon: 145.43 Height: 281.3 m
Data from the previous 72 hours. | See also: Recent months at Blackall
Date/Time
EST
Temp
°C
App
Temp
°C
Dew
Point
°C
Rel
Hum
%
Delta-T
°C
Wind Press
QNH
hPa
Press
MSL
hPa
Rain since
9am
mm
Dir  Spd
km/h
Gust
km/h
Spd
kts
Gust
kts
01/01:30pm 26.1 23.1 14.9 50 6.8 N 24 32 13 17 1014.3 1013.2 0.0
01/01:00pm 24.8 20.7 13.7 50 6.6 N 28 39 15 21 1014.8 1013.7 0.0
01/12:30pm 24.7 20.4 13.3 49 6.7 NNE 28 39 15 21 1015.5 1014.5 0.0
01/12:00pm 24.6 20.3 14.4 53 6.1 NNE 30 39 16 21 1016.0 1015.0 0.0
01/11:30am 23.7 19.1 13.6 53 6.0 N 30 41 16 22 1017.1 1016.1 0.0
01/11:00am 23.6 20.3 14.0 55 5.7 N 24 35 13 19 1018.3 1017.3 0.0
01/10:30am 23.3 19.7 14.3 57 5.4 N 26 37 14 20 1018.8 1017.8 0.0
01/10:00am 22.3 19.5 14.2 60 4.8 N 22 30 12 16 1019.0 1018.0 0.0
01/09:30am 21.9 17.8 13.8 60 4.8 N 28 37 15 20 1019.2 1018.7 0.0
01/09:00am 20.6 18.2 14.5 68 3.6 N 20 30 11 16 1019.4 1018.9 0.0
01/08:30am 18.5 15.8 13.6 73 2.8 NNE 20 28 11 15 1019.3 1018.8 0.0
01/08:00am 18.1 15.9 13.4 74 2.7 NNE 17 24 9 13 1019.2 1018.7 0.0
01/07:30am 17.6 15.8 13.3 76 2.5 NNE 15 20 8 11 1019.0 1018.5 0.0
01/07:00am 17.2 14.9 12.9 76 2.4 NNE 17 24 9 13 1018.5 1018.0 0.0
01/06:30am 17.2 15.3 12.9 76 2.4 NNE 15 20 8 11 1018.3 1017.8 0.0
01/06:00am 17.0 15.0 12.7 76 2.4 NE 15 20 8 11 1017.9 1017.4 0.0
01/05:30am 17.1 15.1 12.8 76 2.4 NE 15 22 8 12 1017.3 1016.8 0.0
01/05:00am 16.9 14.5 12.8 77 2.3 NE 17 22 9 12 1017.1 1016.6 0.0
01/04:30am 16.8 15.2 12.7 77 2.3 NE 13 17 7 9 1017.5 1017.0 0.0
01/04:00am 16.0 14.7 12.6 80 1.9 NE 11 17 6 9 1017.4 1016.9 0.0
01/03:30am 16.2 14.9 12.4 78 2.1 NE 11 13 6 7 1017.7 1017.3 0.0
01/03:00am 16.4 14.7 12.4 77 2.2 ENE 13 17 7 9 1017.5 1017.0 0.0
01/02:30am 16.5 14.8 12.5 77 2.2 ENE 13 17 7 9 1017.9 1017.4 0.0
01/02:00am 16.8 15.1 12.5 76 2.4 ENE 13 19 7 10 1018.3 1017.8 0.0
01/01:30am 17.1 15.4 12.4 74 2.6 ENE 13 17 7 9 1018.6 1018.1 0.0
01/01:00am 17.4 15.7 12.5 73 2.7 ENE 13 17 7 9 1018.7 1018.2 0.0
01/12:30am 18.0 16.4 12.9 72 2.9 ENE 13 17 7 9 1019.0 1018.5 0.0
01/12:00am 17.7 16.4 12.4 71 3.0 ENE 11 15 6 8 1019.2 1018.7 0.0
 
Date/Time
EST
Temp
°C
App
Temp
°C
Dew
Point
°C
Rel
Hum
%
Delta-T
°C
Wind Press
QNH
hPa
Press
MSL
hPa
Rain since
9am
mm
Dir  Spd
km/h
Gust
km/h
Spd
kts
Gust
kts
31/11:30pm 18.3 16.7 12.7 70 3.2 ENE 13 17 7 9 1019.2 1018.7 0.0
31/11:00pm 17.4 16.4 13.3 77 2.3 ENE 11 13 6 7 1019.4 1018.9 0.0
31/10:30pm 16.5 15.6 12.7 78 2.1 E 9 13 5 7 1019.5 1019.0 0.0
31/10:00pm 17.2 18.1 12.9 76 2.4 CALM 0 0 0 0 1019.8 1019.3 0.0
31/09:30pm 17.7 17.3 13.0 74 2.7 E 7 9 4 5 1019.6 1019.1 0.0
31/09:00pm 18.1 18.2 12.8 71 3.0 E 4 7 2 4 1019.7 1019.2 0.0
31/08:30pm 18.2 17.9 13.3 73 2.8 E 7 9 4 5 1019.6 1019.1 0.0
31/08:00pm 19.3 19.4 13.9 71 3.1 ENE 6 7 3 4 1019.4 1018.9 0.0
31/07:30pm 19.1 20.3 13.7 71 3.1 CALM 0 0 0 0 1019.4 1018.9 0.0
31/07:00pm 20.2 21.3 13.6 66 3.8 CALM 0 0 0 0 1019.0 1018.5 0.0
31/06:30pm 21.5 22.6 13.4 60 4.7 CALM 0 0 0 0 1018.9 1018.4 0.0
31/06:00pm 21.8 22.9 13.4 59 4.9 CALM 0 0 0 0 1018.9 1018.4 0.0
31/05:30pm 23.8 24.5 12.1 48 6.7 CALM 0 4 0 2 1018.8 1018.3 0.0
31/05:00pm 23.9 23.6 12.8 49 6.5 NE 6 9 3 5 1018.8 1018.3 0.0
31/04:30pm 24.6 23.4 12.9 48 6.9 N 11 13 6 7 1018.6 1018.1 0.0
31/04:00pm 24.7 23.7 12.3 46 7.2 NNE 9 15 5 8 1018.8 1018.3 0.0
31/03:30pm 24.5 22.8 12.5 47 7.0 N 13 19 7 10 1018.8 1018.3 0.0
31/03:00pm 24.3 23.2 13.2 50 6.5 N 11 15 6 8 1019.2 1018.7 0.0
31/02:30pm 24.3 22.6 12.3 47 6.9 NNW 13 19 7 10 1019.4 1018.9 0.0
31/02:00pm 24.4 22.6 12.0 46 7.1 N 13 17 7 9 1019.9 1019.4 0.0
31/01:30pm 23.9 21.4 12.2 48 6.7 N 17 22 9 12 1020.5 1020.0 0.0
31/01:00pm 24.2 22.4 13.4 51 6.3 NNE 15 26 8 14 1020.7 1020.2 0.0
31/12:30pm 23.5 20.8 12.8 51 6.2 N 19 28 10 15 1021.1 1020.7 0.0
31/12:00pm 22.6 19.9 12.8 54 5.7 N 19 24 10 13 1021.7 1021.2 0.0
31/11:30am 22.4 19.5 12.9 55 5.5 N 20 26 11 14 1022.4 1021.9 0.0
31/11:00am 21.6 17.7 12.2 55 5.3 N 24 35 13 19 1022.5 1022.0 0.0
31/10:30am 21.6 17.8 12.5 56 5.2 NNE 24 35 13 19 1022.8 1022.3 0.0
31/10:00am 20.6 16.8 12.3 59 4.7 N 24 35 13 19 1022.7 1022.2 0.0
31/09:30am 20.7 16.9 12.4 59 4.7 N 24 35 13 19 1023.6 1023.1 0.0
31/09:00am 20.3 16.6 12.8 62 4.3 NNE 24 37 13 20 1023.4 1022.9 0.0
31/08:30am 19.1 15.5 13.1 68 3.4 NNE 24 35 13 19 1023.1 1022.6 0.0
31/08:00am 18.0 15.0 12.7 71 3.0 NNE 20 30 11 16 1023.2 1022.7 0.0
31/07:30am 17.1 14.1 12.4 74 2.6 NNE 20 30 11 16 1022.7 1022.2 0.0
31/07:00am 17.0 14.1 12.3 74 2.6 NNE 19 28 10 15 1022.5 1022.0 0.0
31/06:30am 16.3 13.3 12.1 76 2.3 NNE 19 28 10 15 1022.0 1021.5 0.0
31/06:00am 16.2 13.0 11.8 75 2.4 NNE 20 32 11 17 1021.8 1021.3 0.0
31/05:30am 16.4 13.4 12.0 75 2.4 NNE 19 32 10 17 1021.4 1021.0 0.0
31/05:00am 16.7 13.5 12.0 74 2.6 NNE 20 30 11 16 1021.3 1020.9 0.0
31/04:30am 16.8 13.2 11.9 73 2.7 NNE 22 32 12 17 1021.3 1020.9 0.0
31/04:00am 17.1 13.6 12.2 73 2.7 NNE 22 35 12 19 1021.1 1020.7 0.0
31/03:30am 17.2 14.1 12.3 73 2.7 NE 20 30 11 16 1021.1 1020.7 0.0
31/03:00am 17.6 14.2 12.5 72 2.9 NNE 22 30 12 16 1021.4 1021.0 0.0
31/02:30am 17.8 14.8 12.5 71 3.0 NNE 20 32 11 17 1021.4 1021.0 0.0
31/02:00am 18.2 15.2 12.6 70 3.2 NE 20 32 11 17 1021.2 1020.8 0.0
31/01:30am 18.1 15.2 12.8 71 3.0 NE 20 28 11 15 1021.1 1020.7 0.0
31/01:00am 17.2 15.2 12.7 75 2.5 NE 15 22 8 12 1021.2 1020.8 0.0
31/12:30am 16.8 15.0 12.1 74 2.6 NE 13 15 7 8 1021.3 1020.9 0.0
31/12:00am 17.8 16.1 12.3 70 3.1 NE 13 20 7 11 1021.3 1020.9 0.0
 
Date/Time
EST
Temp
°C
App
Temp
°C
Dew
Point
°C
Rel
Hum
%
Delta-T
°C
Wind Press
QNH
hPa
Press
MSL
hPa
Rain since
9am
mm
Dir  Spd
km/h
Gust
km/h
Spd
kts
Gust
kts
30/11:30pm 18.4 16.0 12.6 69 3.3 NE 17 24 9 13 1021.0 1020.6 0.0
30/11:00pm 18.5 16.8 12.5 68 3.4 NE 13 19 7 10 1021.3 1020.9 0.0
30/10:30pm 18.3 16.6 12.5 69 3.3 NE 13 15 7 8 1021.5 1021.1 0.0
30/10:00pm 18.5 16.5 12.7 69 3.3 NE 15 17 8 9 1021.9 1021.4 0.0
30/09:30pm 17.9 16.7 12.8 72 2.9 ENE 11 15 6 8 1022.1 1021.6 0.0
30/09:00pm 17.4 16.0 12.3 72 2.8 ENE 11 13 6 7 1022.1 1021.6 0.0
30/08:30pm 17.7 16.6 11.9 69 3.2 NE 9 13 5 7 1021.9 1021.4 0.0
30/08:00pm 17.9 16.0 11.9 68 3.3 NE 13 17 7 9 1021.2 1020.8 0.0
30/07:30pm 17.8 16.3 11.8 68 3.3 ENE 11 15 6 8 1021.1 1020.7 0.0
30/07:00pm 19.2 17.2 11.5 61 4.3 NNE 13 17 7 9 1020.7 1020.2 0.0
30/06:30pm 19.8 18.1 11.3 58 4.7 NNE 11 13 6 7 1020.4 1019.9 0.0
30/06:00pm 21.7 20.4 11.1 51 5.9 NNE 9 15 5 8 1020.3 1019.8 0.0
30/05:30pm 23.5 21.0 10.9 45 7.1 NNE 15 20 8 11 1020.1 1019.6 0.0
30/05:00pm 24.3 21.5 11.3 44 7.4 NNE 17 22 9 12 1020.1 1019.6 0.0
30/04:30pm 24.8 22.1 11.7 44 7.5 N 17 24 9 13 1020.2 1019.7 0.0
30/04:00pm 24.8 22.1 11.7 44 7.5 NNE 17 30 9 16 1020.0 1019.5 0.0
30/03:30pm 24.6 21.2 11.2 43 7.6 NNE 20 28 11 15 1020.2 1019.7 0.0
30/03:00pm 24.7 21.0 11.6 44 7.5 N 22 32 12 17 1020.5 1020.0 0.0
30/02:30pm 24.2 20.9 11.5 45 7.2 N 20 30 11 16 1020.9 1020.5 0.0
30/02:00pm 23.8 20.6 11.8 47 6.9 N 20 32 11 17 1021.3 1020.9 0.0
30/01:30pm 23.8 20.9 12.4 48 6.6 N 19 30 10 16 1021.9 1021.4 0.0
30/01:00pm 23.1 19.1 11.8 49 6.4 NNE 24 35 13 19 1022.5 1022.0 0.0
30/12:30pm 22.5 18.3 12.4 52 5.8 NNE 26 37 14 20 1022.9 1022.4 0.0
30/12:00pm 21.4 17.4 11.7 54 5.5 N 24 39 13 21 1023.5 1023.0 0.0
30/11:30am 21.9 17.8 12.7 56 5.3 N 26 37 14 20 1024.2 1023.8 0.0
30/11:00am 21.2 17.8 12.6 58 4.9 N 22 30 12 16 1024.5 1024.1 0.0
30/10:30am 19.8 15.7 11.6 59 4.6 NNE 24 33 13 18 1024.8 1024.4 0.0
30/10:00am 19.8 15.3 12.6 63 4.1 N 28 35 15 19 1024.7 1024.3 0.0
30/09:30am 19.3 14.4 12.6 65 3.8 NNE 30 39 16 21 1024.7 1024.3 0.0
30/09:00am 18.4 14.6 12.4 68 3.4 NNE 24 39 13 21 1024.6 1024.2 0.0
30/08:30am 17.0 12.7 11.9 72 2.8 NNE 26 43 14 23 1024.2 1023.8 0.0
30/08:00am 15.8 12.1 11.6 76 2.3 NNE 22 37 12 20 1024.0 1023.6 0.0
30/07:30am 14.5 11.3 11.1 80 1.8 NNE 19 28 10 15 1023.5 1023.0 0.0
30/07:00am 12.6 9.8 10.1 85 1.3 NE 15 19 8 10 1023.3 1022.8 0.0
30/06:30am 12.1 9.7 10.0 87 1.1 NNE 13 15 7 8 1023.0 1022.5 0.0
30/06:00am 12.4 10.0 10.1 86 1.2 NNE 13 17 7 9 1022.5 1022.0 0.0
30/05:30am 12.2 9.7 9.6 84 1.3 NE 13 15 7 8 1022.3 1021.8 0.0
30/05:00am 13.3 10.9 9.9 80 1.8 NE 13 17 7 9 1022.0 1021.5 0.0
30/04:30am 13.9 10.8 10.3 79 1.9 NNE 17 22 9 12 1021.1 1020.7 0.0
30/04:00am 14.0 10.9 10.2 78 2.0 NE 17 22 9 12 1020.5 1020.0 0.0
30/03:30am 14.4 10.8 10.4 77 2.1 NE 20 28 11 15 1020.3 1019.8 0.0
30/03:00am 12.1 9.7 8.8 80 1.7 NE 11 13 6 7 1020.2 1019.7 0.0
30/02:30am 12.6 9.9 9.1 79 1.8 NE 13 15 7 8 1020.4 1019.9 0.0
30/02:00am 13.2 9.7 8.9 75 2.2 NE 17 20 9 11 1020.4 1019.9 0.0
30/01:30am 14.4 11.4 9.4 72 2.6 ENE 15 20 8 11 1020.4 1019.9 0.0
30/01:00am 13.3 9.9 9.2 76 2.1 ENE 17 19 9 10 1020.6 1020.1 0.0
30/12:30am 12.9 10.1 8.6 75 2.2 E 13 17 7 9 1020.7 1020.2 0.0
30/12:00am 12.9 9.9 7.8 71 2.5 ESE 13 15 7 8 1020.7 1020.2 0.0
 
Date/Time
EST
Temp
°C
App
Temp
°C
Dew
Point
°C
Rel
Hum
%
Delta-T
°C
Wind Press
QNH
hPa
Press
MSL
hPa
Rain since
9am
mm
Dir  Spd
km/h
Gust
km/h
Spd
kts
Gust
kts
29/11:30pm 13.6 10.5 7.4 66 3.1 E 13 17 7 9 1020.9 1020.5 0.0
29/11:00pm 13.5 10.4 7.3 66 3.1 E 13 17 7 9 1020.8 1020.4 0.0
29/10:30pm 14.8 12.1 7.4 61 3.7 E 11 15 6 8 1020.9 1020.5 0.0
29/10:00pm 15.3 11.9 7.6 60 3.9 E 15 19 8 10 1020.9 1020.5 0.0
29/09:30pm 15.9 12.8 7.4 57 4.3 ENE 13 15 7 8 1020.9 1020.5 0.0
29/09:00pm 15.9 13.1 7.1 56 4.4 ENE 11 13 6 7 1021.1 1020.7 0.0
29/08:30pm 16.1 13.7 6.8 54 4.6 ENE 9 11 5 6 1020.9 1020.5 0.0
29/08:00pm 15.8 12.9 6.3 53 4.7 NE 11 13 6 7 1020.7 1020.2 0.0
29/07:30pm 16.9 13.1 5.8 48 5.5 NE 15 19 8 10 1020.3 1019.8 0.0
29/07:00pm 17.4 14.4 6.0 47 5.6 NE 11 13 6 7 1020.3 1019.8 0.0
29/06:30pm 18.5 15.4 5.7 43 6.4 NE 11 13 6 7 1020.0 1019.5 0.0
29/06:00pm 21.1 17.4 4.6 34 8.1 NNE 13 17 7 9 1019.6 1019.1 0.0
29/05:30pm 23.1 19.1 5.1 31 9.1 NNE 15 20 8 11 1019.1 1018.6 0.0
29/05:00pm 24.3 19.0 3.0 25 10.4 NNE 20 28 11 15 1018.9 1018.4 0.0
29/04:30pm 24.7 18.8 1.6 22 11.1 NNE 22 30 12 16 1018.8 1018.3 0.0
29/04:00pm 25.1 19.2 1.9 22 11.2 NNE 22 32 12 17 1018.6 1018.1 0.0
29/03:30pm 25.2 18.7 2.6 23 11.1 NNE 26 33 14 18 1018.5 1018.0 0.0
29/03:00pm 25.2 19.2 3.2 24 10.9 NE 24 35 13 19 1018.7 1018.2 0.0
29/02:30pm 24.8 18.7 2.9 24 10.8 NE 24 35 13 19 1019.1 1018.6 0.0
29/02:00pm 24.4 17.5 2.5 24 10.6 NE 28 41 15 22 1019.5 1019.0 0.0

Other Formats:

Comma delimited format used in spreadsheet applications
http://www.bom.gov.au/fwo/IDQ60801/IDQ60801.95351.axf

JavaScript Object Notation format (JSON) in row-major order
http://www.bom.gov.au/fwo/IDQ60801/IDQ60801.95351.json